Time;durP1;ratioP1;P1;durP2;ratioP2;P2;SDS_P1;SDS_P2;PMS_P1;PMS_P2;Temp;Humidity;BMP_temperature;BMP_pressure;BME280_temperature;BME280_humidity;BME280_pressure;Samples;Min_cycle;Max_cycle;Signal;HPM_P1;HPM_P2
2022/07/09 00:00:43;;;;;;;4.63;1.73;;;22.40;59.90;;;;;;4899166;29;20044;-73
2022/07/09 00:03:09;;;;;;;5.63;2.03;;;22.40;60.00;;;;;;4899712;29;20035;-73
2022/07/09 00:05:35;;;;;;;7.60;1.70;;;22.40;59.80;;;;;;4898484;29;20025;-73
2022/07/09 00:08:01;;;;;;;4.45;1.85;;;22.40;60.00;;;;;;4899509;29;20029;-73
2022/07/09 00:10:27;;;;;;;13.32;1.83;;;22.40;60.00;;;;;;4899184;29;20025;-73
2022/07/09 00:12:53;;;;;;;5.88;1.90;;;22.40;59.90;;;;;;4899397;29;20036;-73
2022/07/09 00:15:19;;;;;;;5.28;1.63;;;22.40;60.00;;;;;;4899267;29;20116;-73
2022/07/09 00:17:44;;;;;;;5.47;1.88;;;22.40;60.00;;;;;;4899404;29;20425;-73
2022/07/09 00:20:10;;;;;;;3.97;1.55;;;22.40;60.00;;;;;;4899108;29;20036;-73
2022/07/09 00:22:36;;;;;;;6.20;1.80;;;22.30;60.00;;;;;;4899430;29;20044;-73
2022/07/09 00:25:03;;;;;;;4.18;1.67;;;22.30;60.00;;;;;;4898186;29;20028;-73
2022/07/09 00:27:28;;;;;;;2.92;1.75;;;22.30;60.00;;;;;;4899188;29;20047;-73
2022/07/09 00:29:54;;;;;;;5.10;1.70;;;22.40;60.00;;;;;;4882120;29;20032;-73
2022/07/09 00:32:20;;;;;;;4.35;2.00;;;22.40;59.90;;;;;;4899219;29;20032;-74
2022/07/09 00:34:46;;;;;;;8.27;2.00;;;22.40;60.00;;;;;;4899083;29;20035;-74
2022/07/09 00:37:12;;;;;;;3.33;1.65;;;22.30;59.90;;;;;;4882248;29;20513;-74
2022/07/09 00:39:38;;;;;;;3.22;1.58;;;22.30;59.90;;;;;;4897573;29;20033;-74
2022/07/09 00:42:05;;;;;;;4.25;2.05;;;22.30;59.90;;;;;;4882243;29;20036;-74
2022/07/09 00:44:31;;;;;;;6.85;1.63;;;22.30;59.90;;;;;;4898800;29;20021;-74
2022/07/09 00:46:58;;;;;;;6.22;1.92;;;22.30;59.90;;;;;;4898801;29;20028;-74
2022/07/09 00:49:26;;;;;;;8.57;2.20;;;22.40;60.00;;;;;;4898800;29;20029;-73
2022/07/09 00:51:52;;;;;;;3.40;1.70;;;22.40;59.90;;;;;;4897515;29;20040;-74
2022/07/09 00:54:18;;;;;;;4.43;1.77;;;22.40;60.00;;;;;;4898744;29;20123;-74
2022/07/09 00:56:44;;;;;;;5.97;1.65;;;22.40;60.00;;;;;;4898839;29;20119;-74
2022/07/09 00:59:12;;;;;;;4.85;1.63;;;22.40;60.10;;;;;;4898508;29;20060;-74
2022/07/09 01:01:41;;;;;;;6.78;1.80;;;22.40;60.10;;;;;;4898297;29;20032;-73
2022/07/09 01:04:07;;;;;;;3.83;1.60;;;22.30;60.10;;;;;;4897451;29;20028;-74
2022/07/09 01:06:36;;;;;;;5.97;2.00;;;22.40;60.10;;;;;;4898466;29;20503;-74
2022/07/09 01:09:03;;;;;;;5.33;1.73;;;22.30;60.00;;;;;;4898575;29;20084;-74
2022/07/09 01:11:29;;;;;;;3.80;1.70;;;22.30;60.00;;;;;;4897998;29;20453;-74
2022/07/09 01:13:55;;;;;;;3.28;1.58;;;22.30;60.50;;;;;;4898394;29;20392;-74
2022/07/09 01:16:23;;;;;;;4.50;1.65;;;22.30;60.00;;;;;;4898306;29;20024;-74
2022/07/09 01:18:49;;;;;;;6.47;1.90;;;22.30;60.00;;;;;;4897207;29;20025;-74
2022/07/09 01:21:15;;;;;;;4.93;1.70;;;22.40;60.10;;;;;;4898049;29;20107;-74
2022/07/09 01:23:41;;;;;;;7.72;2.30;;;22.30;60.10;;;;;;4898347;29;20115;-74
2022/07/09 01:26:08;;;;;;;3.85;1.77;;;22.30;60.10;;;;;;4897956;29;20033;-74
2022/07/09 01:28:33;;;;;;;6.72;2.15;;;22.30;60.10;;;;;;4898085;29;20029;-74
2022/07/09 01:30:59;;;;;;;5.15;1.50;;;22.30;60.00;;;;;;4897742;29;20027;-74
2022/07/09 01:33:26;;;;;;;5.53;1.85;;;22.30;59.80;;;;;;4897397;29;20037;-74
2022/07/09 01:35:52;;;;;;;6.75;1.80;;;22.30;59.80;;;;;;4896691;29;20454;-74
2022/07/09 01:38:17;;;;;;;5.40;1.67;;;22.30;59.90;;;;;;4896842;29;20049;-74
2022/07/09 01:40:43;;;;;;;6.43;1.83;;;22.30;60.20;;;;;;4897450;29;20040;-74
2022/07/09 01:43:09;;;;;;;3.33;1.98;;;22.40;60.10;;;;;;4897904;29;20040;-74
2022/07/09 01:45:35;;;;;;;6.13;1.73;;;22.40;60.00;;;;;;4898109;29;20028;-74
2022/07/09 01:48:00;;;;;;;7.78;1.95;;;22.40;60.00;;;;;;4897738;29;20020;-74
2022/07/09 01:50:26;;;;;;;4.20;1.55;;;22.40;60.10;;;;;;4897455;29;20066;-75
2022/07/09 01:52:52;;;;;;;3.08;1.55;;;22.30;59.80;;;;;;4897886;29;20036;-75
2022/07/09 01:55:18;;;;;;;6.43;2.03;;;22.30;60.00;;;;;;4896312;29;20151;-74
2022/07/09 01:57:44;;;;;;;4.88;1.92;;;22.30;60.10;;;;;;4897489;29;20040;-74
2022/07/09 02:00:10;;;;;;;3.80;1.80;;;22.40;60.10;;;;;;4897576;29;20028;-74
2022/07/09 02:02:39;;;;;;;9.15;1.80;;;22.40;59.90;;;;;;4896331;29;20458;-73
2022/07/09 02:05:05;;;;;;;6.22;1.58;;;22.30;59.80;;;;;;4896740;29;20028;-74
2022/07/09 02:07:32;;;;;;;6.03;1.58;;;22.40;59.90;;;;;;4896209;29;20032;-75
2022/07/09 02:09:58;;;;;;;11.13;1.75;;;22.40;59.80;;;;;;4897010;29;20067;-74
2022/07/09 02:12:23;;;;;;;5.25;2.00;;;22.30;59.80;;;;;;4896108;29;20064;-75
2022/07/09 02:14:49;;;;;;;5.47;1.77;;;22.30;59.90;;;;;;4897398;29;20079;-74
2022/07/09 02:17:15;;;;;;;6.47;1.60;;;22.30;59.90;;;;;;4896126;29;20088;-74
2022/07/09 02:19:41;;;;;;;4.97;1.50;;;22.40;60.00;;;;;;4897096;29;20071;-74
2022/07/09 02:22:07;;;;;;;4.05;1.60;;;22.30;59.90;;;;;;4897194;29;20064;-74
2022/07/09 02:24:34;;;;;;;7.05;1.65;;;22.30;60.00;;;;;;4897041;29;20072;-74
2022/07/09 02:27:00;;;;;;;6.63;1.63;;;22.30;60.10;;;;;;4897207;29;20071;-73
2022/07/09 02:29:26;;;;;;;5.97;2.03;;;22.30;60.20;;;;;;4897335;29;20198;-74
2022/07/09 02:31:51;;;;;;;3.72;1.60;;;22.30;60.00;;;;;;4895557;29;20096;-73
2022/07/09 02:34:17;;;;;;;4.35;1.40;;;22.30;60.20;;;;;;4897080;29;20060;-73
2022/07/09 02:36:43;;;;;;;4.43;1.70;;;22.30;60.10;;;;;;4895648;29;20039;-74
2022/07/09 02:39:09;;;;;;;3.67;1.83;;;22.30;60.00;;;;;;4896974;29;20067;-74
2022/07/09 02:41:35;;;;;;;3.83;1.70;;;22.30;60.00;;;;;;4896540;29;20072;-74
2022/07/09 02:44:01;;;;;;;2.97;1.70;;;22.30;60.00;;;;;;4897054;29;20032;-73
2022/07/09 02:46:26;;;;;;;5.07;1.90;;;22.30;60.10;;;;;;4896822;29;20063;-74
2022/07/09 02:48:52;;;;;;;5.95;1.83;;;22.30;60.30;;;;;;4895723;29;20084;-74
2022/07/09 02:51:18;;;;;;;3.63;1.50;;;22.30;60.20;;;;;;4895355;29;20135;-74
2022/07/09 02:53:44;;;;;;;5.43;1.60;;;22.30;60.50;;;;;;4896647;29;20028;-74
2022/07/09 02:56:10;;;;;;;5.45;1.90;;;22.30;60.30;;;;;;4897065;29;20033;-74
2022/07/09 02:58:35;;;;;;;7.18;1.83;;;22.30;60.40;;;;;;4895485;29;20039;-74
2022/07/09 03:01:01;;;;;;;9.35;1.77;;;22.30;60.40;;;;;;4896468;29;20040;-74
2022/07/09 03:03:27;;;;;;;4.63;1.85;;;22.30;60.30;;;;;;4895321;29;20084;-74
2022/07/09 03:05:53;;;;;;;5.30;1.77;;;22.30;60.30;;;;;;4896780;29;20037;-73
2022/07/09 03:08:21;;;;;;;5.53;1.60;;;22.30;60.30;;;;;;4896450;29;20032;-74
2022/07/09 03:10:49;;;;;;;7.32;1.77;;;22.30;60.00;;;;;;4896595;29;20405;-73
2022/07/09 03:13:15;;;;;;;6.40;1.55;;;22.30;60.20;;;;;;4896571;29;20040;-74
2022/07/09 03:15:41;;;;;;;7.55;1.80;;;22.30;60.10;;;;;;4896604;29;20088;-74
2022/07/09 03:18:08;;;;;;;3.72;1.60;;;22.30;60.20;;;;;;4896346;29;20128;-74
2022/07/09 03:20:35;;;;;;;6.13;1.90;;;22.30;60.30;;;;;;4896274;29;20506;-74
2022/07/09 03:23:02;;;;;;;3.58;1.60;;;22.30;60.30;;;;;;4896592;29;20059;-75
2022/07/09 03:25:27;;;;;;;3.33;1.55;;;22.30;60.30;;;;;;4911083;29;20029;-75
2022/07/09 03:27:56;;;;;;;4.63;1.38;;;22.30;60.40;;;;;;4896544;29;20496;-75
2022/07/09 03:30:23;;;;;;;3.53;1.55;;;22.30;60.30;;;;;;4896224;29;20032;-74
2022/07/09 03:32:50;;;;;;;9.65;1.70;;;22.30;60.20;;;;;;4896382;29;20370;-74
2022/07/09 03:35:16;;;;;;;4.50;1.48;;;22.30;60.20;;;;;;4895260;29;20037;-74
2022/07/09 03:37:42;;;;;;;4.20;1.40;;;22.30;60.00;;;;;;4897489;23;20052;-69
2022/07/09 03:40:08;;;;;;;7.93;2.13;;;22.30;60.30;;;;;;4856838;29;20394;-68
2022/07/09 03:42:34;;;;;;;5.20;1.95;;;22.30;60.10;;;;;;4858931;29;20105;-69
2022/07/09 03:45:00;;;;;;;7.57;1.80;;;22.30;59.90;;;;;;4859150;29;20554;-68
2022/07/09 03:47:26;;;;;;;6.28;1.75;;;22.30;59.80;;;;;;4842474;29;20033;-69
2022/07/09 03:49:52;;;;;;;7.07;1.90;;;22.30;60.50;;;;;;4858806;29;20037;-69
2022/07/09 03:52:18;;;;;;;10.60;1.98;;;22.30;59.90;;;;;;4859018;29;20034;-69
2022/07/09 03:54:44;;;;;;;5.78;1.85;;;22.30;60.00;;;;;;4842624;29;20049;-69
2022/07/09 03:57:10;;;;;;;4.63;2.00;;;22.30;59.90;;;;;;4844904;29;20025;-68
2022/07/09 03:59:36;;;;;;;5.57;1.77;;;22.30;60.20;;;;;;4861029;29;20097;-68
2022/07/09 04:02:04;;;;;;;7.60;1.80;;;22.30;60.30;;;;;;4862161;29;20037;-69
2022/07/09 04:04:29;;;;;;;5.82;1.95;;;22.30;60.20;;;;;;4862282;29;20034;-69
2022/07/09 04:06:55;;;;;;;4.47;1.70;;;22.30;60.20;;;;;;4862364;29;20076;-68
2022/07/09 04:09:21;;;;;;;7.80;1.85;;;22.30;60.10;;;;;;4862540;29;20387;-69
2022/07/09 04:11:48;;;;;;;5.00;1.85;;;22.30;60.30;;;;;;4845549;29;20030;-69
2022/07/09 04:14:19;;;;;;;5.35;2.03;;;22.30;60.20;;;;;;4860816;29;20483;-69
2022/07/09 04:16:46;;;;;;;7.53;1.83;;;22.30;60.20;;;;;;4861945;29;20409;-69
2022/07/09 04:19:12;;;;;;;9.35;1.80;;;22.30;60.30;;;;;;4862005;29;20403;-69
2022/07/09 04:21:38;;;;;;;11.77;2.03;;;22.30;60.40;;;;;;4861578;29;20030;-69
2022/07/09 04:24:04;;;;;;;5.00;1.80;;;22.30;60.60;;;;;;4860780;29;20021;-69
2022/07/09 04:26:30;;;;;;;5.40;1.88;;;22.30;60.30;;;;;;4861938;29;20106;-68
2022/07/09 04:28:56;;;;;;;5.53;1.95;;;22.30;60.50;;;;;;4861782;29;20025;-69
2022/07/09 04:31:21;;;;;;;4.70;1.40;;;22.20;60.60;;;;;;4860698;29;20386;-69
2022/07/09 04:33:48;;;;;;;9.60;2.15;;;22.20;60.30;;;;;;4861809;29;20037;-69
2022/07/09 04:36:13;;;;;;;4.18;2.00;;;22.20;60.60;;;;;;4860581;29;20073;-69
2022/07/09 04:38:39;;;;;;;6.75;2.05;;;22.20;60.30;;;;;;4861567;29;20076;-69
2022/07/09 04:41:05;;;;;;;9.35;1.83;;;22.30;60.30;;;;;;4861308;29;20069;-69
2022/07/09 04:43:32;;;;;;;7.85;2.00;;;22.30;60.50;;;;;;4861337;29;20037;-69
2022/07/09 04:45:58;;;;;;;5.07;2.10;;;22.20;60.20;;;;;;4844945;29;20079;-68
2022/07/09 04:48:24;;;;;;;6.28;1.90;;;22.30;60.50;;;;;;4861515;29;20030;-68
2022/07/09 04:50:50;;;;;;;5.18;1.95;;;22.20;60.30;;;;;;4861215;29;20052;-68
2022/07/09 04:53:16;;;;;;;4.25;2.00;;;22.30;60.40;;;;;;4860411;29;20116;-68
2022/07/09 04:55:42;;;;;;;5.45;2.08;;;22.20;60.40;;;;;;4860171;29;20075;-68
2022/07/09 04:58:09;;;;;;;6.15;2.40;;;22.30;60.60;;;;;;4861228;29;20037;-68
2022/07/09 05:00:35;;;;;;;5.30;1.98;;;22.30;60.80;;;;;;4844581;29;20041;-67
2022/07/09 05:03:01;;;;;;;4.97;1.83;;;22.30;60.50;;;;;;4860146;29;20041;-68
2022/07/09 05:05:27;;;;;;;5.03;2.05;;;22.20;60.50;;;;;;4861136;29;20034;-68
2022/07/09 05:07:53;;;;;;;6.82;1.60;;;22.30;60.50;;;;;;4859219;29;20030;-69
2022/07/09 05:10:19;;;;;;;5.05;1.70;;;22.20;60.60;;;;;;4860838;29;20026;-68
2022/07/09 05:12:46;;;;;;;4.75;2.08;;;22.30;60.80;;;;;;4861176;29;20402;-68
2022/07/09 05:15:13;;;;;;;6.03;1.88;;;22.20;60.40;;;;;;4861081;29;20033;-68
2022/07/09 05:17:40;;;;;;;6.90;1.83;;;22.20;60.20;;;;;;4860961;29;20064;-68
2022/07/09 05:20:08;;;;;;;7.25;1.70;;;22.30;60.50;;;;;;4860671;29;20041;-68
2022/07/09 05:22:35;;;;;;;7.97;1.95;;;22.20;60.20;;;;;;4844421;29;20105;-69
2022/07/09 05:25:01;;;;;;;6.00;1.77;;;22.30;60.60;;;;;;4859725;29;20030;-68
2022/07/09 05:27:30;;;;;;;3.60;1.80;;;22.30;60.30;;;;;;4859704;29;20033;-68
2022/07/09 05:29:56;;;;;;;5.90;1.77;;;22.30;60.50;;;;;;4844475;29;20487;-68
2022/07/09 05:32:22;;;;;;;5.53;2.08;;;22.30;60.60;;;;;;4860773;29;20041;-68
2022/07/09 05:34:48;;;;;;;5.80;1.83;;;22.30;60.20;;;;;;4860770;29;20037;-67
2022/07/09 05:37:14;;;;;;;5.32;1.80;;;22.30;60.40;;;;;;4844134;29;20041;-68
2022/07/09 05:39:40;;;;;;;5.80;1.88;;;22.30;61.00;;;;;;4860286;29;20116;-67
2022/07/09 05:42:06;;;;;;;3.45;1.92;;;22.30;60.50;;;;;;4860424;29;20128;-68
2022/07/09 05:44:32;;;;;;;7.68;2.03;;;22.30;60.60;;;;;;4859385;29;20036;-67
2022/07/09 05:46:58;;;;;;;6.47;2.10;;;22.30;60.50;;;;;;4859439;29;20029;-68
2022/07/09 05:49:24;;;;;;;4.65;1.63;;;22.30;60.60;;;;;;4859259;29;20315;-68
2022/07/09 05:51:49;;;;;;;7.10;1.90;;;22.30;60.90;;;;;;4860145;29;20165;-68
2022/07/09 05:54:15;;;;;;;7.03;2.00;;;22.30;60.50;;;;;;4860614;29;20033;-68
2022/07/09 05:56:41;;;;;;;5.68;1.75;;;22.30;60.30;;;;;;4860119;29;20105;-68
2022/07/09 05:59:08;;;;;;;6.15;2.00;;;22.30;60.30;;;;;;4860322;29;20034;-68
2022/07/09 06:01:38;;;;;;;6.47;2.00;;;22.30;60.40;;;;;;4859779;29;20045;-68
2022/07/09 06:04:05;;;;;;;6.65;2.08;;;22.30;60.50;;;;;;4860305;29;20160;-68
2022/07/09 06:06:31;;;;;;;6.20;1.95;;;22.30;60.40;;;;;;4859132;29;20057;-68
2022/07/09 06:08:57;;;;;;;4.18;1.83;;;22.30;60.40;;;;;;4859949;29;20477;-68
2022/07/09 06:11:23;;;;;;;3.30;1.75;;;22.30;60.50;;;;;;4858670;29;20028;-68
2022/07/09 06:13:48;;;;;;;4.63;1.73;;;22.30;60.20;;;;;;4859033;29;20065;-68
2022/07/09 06:16:14;;;;;;;5.20;1.90;;;22.30;60.30;;;;;;4843837;29;20041;-68
2022/07/09 06:18:40;;;;;;;10.65;2.30;;;22.30;60.60;;;;;;4858434;29;20394;-68
2022/07/09 06:21:06;;;;;;;3.92;1.95;;;22.30;61.70;;;;;;4843222;29;20062;-68
2022/07/09 06:23:32;;;;;;;3.85;1.73;;;22.30;60.20;;;;;;4859743;29;20038;-68
2022/07/09 06:25:58;;;;;;;4.03;1.60;;;22.30;60.20;;;;;;4858858;29;20044;-68
2022/07/09 06:28:23;;;;;;;5.10;2.28;;;22.30;60.10;;;;;;4859717;29;20077;-68
2022/07/09 06:30:49;;;;;;;6.90;2.03;;;22.30;60.40;;;;;;4858403;29;20391;-68
2022/07/09 06:33:15;;;;;;;6.20;3.10;;;22.30;60.30;;;;;;4859770;29;20352;-68
2022/07/09 06:35:41;;;;;;;5.88;2.50;;;22.30;60.70;;;;;;4858891;29;20038;-69
2022/07/09 06:38:06;;;;;;;6.72;2.92;;;22.30;60.60;;;;;;4858310;29;20042;-68
2022/07/09 06:40:34;;;;;;;7.45;2.17;;;22.30;60.30;;;;;;4859397;29;20033;-68
2022/07/09 06:43:00;;;;;;;5.25;2.40;;;22.30;60.10;;;;;;4858480;29;20399;-68
2022/07/09 06:45:33;;;;;;;8.43;3.05;;;22.30;60.30;;;;;;4829053;29;20041;-68
2022/07/09 06:47:59;;;;;;;6.03;2.22;;;22.30;60.30;;;;;;4859470;29;20079;-68
2022/07/09 06:50:24;;;;;;;5.95;2.42;;;22.30;60.30;;;;;;4859294;29;20026;-67
2022/07/09 06:52:50;;;;;;;7.35;2.50;;;22.30;60.90;;;;;;4859398;29;20048;-68
2022/07/09 06:55:16;;;;;;;7.85;3.53;;;22.30;60.10;;;;;;4843101;29;20070;-68
2022/07/09 06:57:42;;;;;;;11.45;3.88;;;22.30;60.50;;;;;;4843247;29;20502;-68
2022/07/09 07:00:08;;;;;;;9.07;4.45;;;22.30;60.40;;;;;;4859177;29;20034;-67
2022/07/09 07:02:34;;;;;;;7.07;3.17;;;22.30;60.50;;;;;;4859633;29;20443;-68
2022/07/09 07:05:00;;;;;;;6.45;2.97;;;22.30;60.30;;;;;;4859407;29;20022;-68
2022/07/09 07:07:26;;;;;;;10.90;4.20;;;22.30;60.40;;;;;;4858213;29;20046;-68
2022/07/09 07:09:52;;;;;;;7.53;3.08;;;22.30;60.50;;;;;;4857945;29;20036;-68
2022/07/09 07:12:17;;;;;;;12.07;3.40;;;22.30;60.30;;;;;;4873626;29;20108;-68
2022/07/09 07:14:43;;;;;;;9.48;3.40;;;22.30;60.60;;;;;;4858172;29;20033;-68
2022/07/09 07:17:09;;;;;;;9.55;3.85;;;22.30;60.50;;;;;;4858149;29;20459;-68
2022/07/09 07:19:35;;;;;;;10.98;4.78;;;22.30;60.50;;;;;;4857857;29;20529;-68
2022/07/09 07:22:01;;;;;;;12.10;3.78;;;22.30;60.40;;;;;;4859103;29;20073;-68
2022/07/09 07:24:27;;;;;;;12.43;5.07;;;22.30;60.40;;;;;;4858153;29;20130;-68
2022/07/09 07:26:54;;;;;;;9.32;4.15;;;22.30;60.50;;;;;;4857989;29;20447;-68
2022/07/09 07:29:20;;;;;;;12.18;5.25;;;22.30;60.40;;;;;;4858264;29;20082;-68
2022/07/09 07:31:46;;;;;;;11.63;4.93;;;22.30;60.60;;;;;;4859963;29;20037;-68
2022/07/09 07:34:12;;;;;;;12.27;4.88;;;22.30;60.60;;;;;;4846329;29;20034;-68
2022/07/09 07:36:38;;;;;;;10.75;4.90;;;22.30;60.50;;;;;;4861501;29;20029;-68
2022/07/09 07:39:04;;;;;;;11.27;3.80;;;22.30;60.60;;;;;;4861533;29;20041;-67
2022/07/09 07:41:30;;;;;;;9.80;4.50;;;22.30;60.20;;;;;;4861212;29;20030;-68
2022/07/09 07:43:55;;;;;;;9.43;4.70;;;22.30;60.50;;;;;;4862326;29;20558;-68
2022/07/09 07:46:21;;;;;;;10.18;4.78;;;22.30;60.60;;;;;;4862541;29;20443;-68
2022/07/09 07:48:47;;;;;;;9.07;4.53;;;22.30;60.60;;;;;;4862393;29;20037;-68
2022/07/09 07:51:13;;;;;;;15.25;5.50;;;22.30;60.50;;;;;;4862065;29;20161;-68
2022/07/09 07:53:39;;;;;;;14.88;5.60;;;22.30;60.60;;;;;;4862345;29;20085;-68
2022/07/09 07:56:06;;;;;;;13.07;5.15;;;22.40;60.70;;;;;;4845966;29;20040;-68
2022/07/09 07:58:32;;;;;;;12.25;5.00;;;22.30;60.60;;;;;;4862411;29;20490;-68
2022/07/09 08:00:58;;;;;;;14.00;5.30;;;22.40;60.90;;;;;;4876251;29;20046;-69
2022/07/09 08:03:24;;;;;;;9.82;5.15;;;22.40;60.70;;;;;;4860563;29;20443;-69
2022/07/09 08:05:50;;;;;;;14.15;5.57;;;22.40;60.80;;;;;;4850879;29;20120;-69
2022/07/09 08:08:18;;;;;;;10.68;5.03;;;22.30;60.60;;;;;;4844767;29;20038;-69
2022/07/09 08:10:45;;;;;;;10.48;5.20;;;22.30;60.80;;;;;;4842287;29;20052;-69
2022/07/09 08:13:17;;;;;;;12.13;5.07;;;22.30;60.50;;;;;;4843706;29;20049;-69
2022/07/09 08:15:43;;;;;;;12.73;5.25;;;22.30;60.60;;;;;;4827290;29;20045;-68
2022/07/09 08:18:12;;;;;;;11.77;5.03;;;22.30;60.60;;;;;;4843561;29;20094;-68
2022/07/09 08:20:39;;;;;;;11.50;5.60;;;22.30;60.40;;;;;;4842414;29;20038;-68
2022/07/09 08:23:06;;;;;;;11.40;4.93;;;22.30;60.40;;;;;;4842309;29;20146;-68
2022/07/09 08:25:32;;;;;;;12.75;5.03;;;22.40;60.80;;;;;;4843527;29;20037;-68
2022/07/09 08:27:58;;;;;;;12.23;4.97;;;22.30;60.60;;;;;;4843344;29;20034;-68
2022/07/09 08:30:24;;;;;;;11.40;4.93;;;22.30;60.70;;;;;;4826876;29;20034;-68
2022/07/09 08:32:50;;;;;;;11.60;4.50;;;22.30;60.50;;;;;;4843333;29;20042;-68
2022/07/09 08:35:15;;;;;;;10.02;4.90;;;22.30;60.70;;;;;;4842204;29;20041;-68
2022/07/09 08:37:41;;;;;;;9.13;4.57;;;22.30;60.80;;;;;;4842348;29;20056;-69
2022/07/09 08:40:07;;;;;;;11.82;4.57;;;22.30;60.70;;;;;;4841776;29;20038;-68
2022/07/09 08:42:33;;;;;;;10.57;4.97;;;22.30;60.60;;;;;;4843217;29;20078;-68
2022/07/09 08:44:59;;;;;;;10.48;4.78;;;22.30;60.80;;;;;;4842130;29;20428;-68
2022/07/09 08:47:25;;;;;;;11.35;4.80;;;22.30;60.80;;;;;;4843076;29;20424;-68
2022/07/09 08:49:56;;;;;;;11.32;4.78;;;22.30;60.80;;;;;;4842785;29;20026;-68
2022/07/09 08:52:26;;;;;;;11.93;5.32;;;22.30;60.70;;;;;;4826903;29;20042;-68
2022/07/09 08:54:55;;;;;;;11.52;4.97;;;22.30;60.70;;;;;;4842949;29;20571;-68
2022/07/09 08:57:21;;;;;;;11.30;4.78;;;22.30;61.10;;;;;;4841833;29;20463;-67
2022/07/09 08:59:46;;;;;;;13.13;4.20;;;22.30;60.60;;;;;;4842529;29;20116;-67
2022/07/09 09:02:13;;;;;;;10.20;4.40;;;22.30;60.50;;;;;;4843029;29;20073;-67
2022/07/09 09:04:40;;;;;;;12.18;4.55;;;22.30;60.50;;;;;;4841634;29;20041;-67
2022/07/09 09:07:13;;;;;;;11.95;4.28;;;22.30;60.40;;;;;;4842682;29;20042;-67
2022/07/09 09:09:38;;;;;;;8.50;3.63;;;22.20;60.20;;;;;;4845920;29;20471;-66
2022/07/09 09:12:05;;;;;;;9.20;3.35;;;22.30;60.30;;;;;;4860983;29;20161;-68
2022/07/09 09:14:31;;;;;;;9.90;3.65;;;22.30;59.70;;;;;;4859429;29;20396;-67
2022/07/09 09:17:14;;;;;;;11.15;3.70;;;22.30;61.00;;;;;;4859702;29;20037;-67
2022/07/09 09:19:40;;;;;;;11.10;5.93;;;22.20;59.90;;;;;;4860517;29;20044;-68
2022/07/09 09:22:07;;;;;;;15.65;7.50;;;22.20;60.80;;;;;;4859516;29;20121;-67
2022/07/09 09:24:34;;;;;;;17.70;6.57;;;22.10;60.00;;;;;;4860532;29;20025;-69
2022/07/09 09:27:00;;;;;;;14.30;6.05;;;22.10;60.30;;;;;;4874563;29;20155;-69
2022/07/09 09:29:27;;;;;;;11.40;5.38;;;22.10;59.60;;;;;;4859603;29;20434;-69
2022/07/09 09:31:54;;;;;;;12.23;5.22;;;22.20;60.30;;;;;;4875647;29;20482;-69
2022/07/09 09:34:20;;;;;;;14.00;5.88;;;22.20;59.50;;;;;;4875512;29;20490;-68
2022/07/09 09:36:50;;;;;;;14.57;6.22;;;22.20;59.40;;;;;;4859884;29;20048;-71
2022/07/09 09:39:26;;;;;;;12.75;5.00;;;22.20;60.20;;;;;;4889202;23;20055;-71
2022/07/09 09:41:57;;;;;;;13.93;5.45;;;22.20;60.10;;;;;;4875629;29;20039;-72
2022/07/09 09:44:29;;;;;;;11.77;5.35;;;22.30;60.00;;;;;;4888197;29;20037;-72
2022/07/09 09:46:56;;;;;;;11.50;5.85;;;22.30;59.60;;;;;;4884538;29;20033;-72
2022/07/09 09:49:22;;;;;;;12.30;5.35;;;22.30;60.00;;;;;;4877691;29;20041;-72
2022/07/09 09:51:54;;;;;;;11.95;5.07;;;22.30;60.00;;;;;;4877836;29;20092;-73
2022/07/09 09:54:21;;;;;;;21.48;5.30;;;22.30;60.20;;;;;;4877366;29;20486;-72
2022/07/09 09:56:49;;;;;;;12.68;5.85;;;22.30;60.10;;;;;;4878072;29;20036;-73
2022/07/09 09:59:15;;;;;;;19.90;6.15;;;22.30;60.10;;;;;;4876825;29;20052;-72
2022/07/09 10:01:42;;;;;;;11.00;5.97;;;22.30;60.60;;;;;;4879940;29;20045;-72
2022/07/09 10:04:10;;;;;;;16.77;6.43;;;22.30;60.60;;;;;;4894145;29;20052;-72
2022/07/09 10:06:37;;;;;;;11.57;5.88;;;22.30;60.70;;;;;;4893165;29;20493;-72
2022/07/09 10:09:04;;;;;;;14.27;5.75;;;22.30;60.60;;;;;;4877793;29;20430;-72
2022/07/09 10:11:45;;;;;;;13.40;5.43;;;22.30;60.60;;;;;;4877453;29;20029;-72
2022/07/09 10:14:32;;;;;;;10.57;5.35;;;22.30;60.60;;;;;;4887206;29;20486;-72
2022/07/09 10:17:14;;;;;;;11.52;5.85;;;22.30;60.60;;;;;;4896137;29;20056;-73
2022/07/09 10:20:04;;;;;;;10.00;5.30;;;22.30;60.60;;;;;;4896818;29;20028;-72
2022/07/09 10:22:38;;;;;;;10.05;5.10;;;22.30;60.60;;;;;;4896173;29;20036;-73
2022/07/09 10:25:08;;;;;;;11.73;5.35;;;22.30;60.70;;;;;;4897111;29;20035;-72
2022/07/09 10:27:45;;;;;;;17.60;5.35;;;22.40;62.10;;;;;;4895910;29;20068;-72
2022/07/09 10:30:29;;;;;;;12.50;5.97;;;22.40;61.30;;;;;;4895557;29;20071;-73
2022/07/09 10:33:09;;;;;;;16.33;7.40;;;22.40;62.70;;;;;;4895471;29;20596;-72
2022/07/09 10:35:58;;;;;;;21.08;6.93;;;22.50;64.40;;;;;;4878260;29;20089;-72
2022/07/09 10:38:35;;;;;;;18.00;6.97;;;22.50;64.10;;;;;;4878188;29;20467;-72
2022/07/09 10:41:02;;;;;;;22.55;7.28;;;22.50;63.60;;;;;;4878141;29;20033;-72
2022/07/09 10:43:52;;;;;;;18.77;8.32;;;22.50;65.20;;;;;;4878149;29;20064;-73
2022/07/09 10:46:19;;;;;;;17.58;7.43;;;22.50;67.80;;;;;;4861662;29;20070;-73
2022/07/09 10:48:46;;;;;;;18.60;9.68;;;22.50;66.70;;;;;;4878247;29;20057;-72
2022/07/09 10:51:22;;;;;;;26.02;10.50;;;22.50;68.40;;;;;;4878006;29;20033;-72
2022/07/09 10:53:48;;;;;;;23.00;10.20;;;22.60;68.40;;;;;;4878174;29;20503;-72
2022/07/09 10:56:18;;;;;;;20.15;9.35;;;22.50;67.50;;;;;;4877185;29;20132;-72
2022/07/09 10:58:48;;;;;;;24.30;11.40;;;22.60;66.90;;;;;;4876850;29;20045;-72
2022/07/09 11:01:24;;;;;;;24.20;11.25;;;22.60;69.50;;;;;;4878302;29;20393;-73
2022/07/09 11:03:51;;;;;;;30.45;9.40;;;22.60;69.20;;;;;;4876660;29;20527;-72
2022/07/09 11:06:17;;;;;;;22.02;7.25;;;22.60;67.40;;;;;;4878265;29;20029;-73
2022/07/09 11:08:42;;;;;;;17.75;6.40;;;22.50;66.50;;;;;;4865343;29;20454;-72
2022/07/09 11:11:08;;;;;;;15.82;4.65;;;22.40;65.80;;;;;;4881632;29;20044;-72
2022/07/09 11:13:34;;;;;;;11.45;4.20;;;22.30;64.30;;;;;;4881897;29;20072;-71
2022/07/09 11:16:01;;;;;;;9.15;3.78;;;22.20;64.40;;;;;;4880821;29;20431;-71
2022/07/09 11:18:28;;;;;;;12.77;3.88;;;22.20;63.10;;;;;;4881791;29;20053;-72
2022/07/09 11:20:54;;;;;;;7.03;2.90;;;22.10;62.80;;;;;;4880706;29;20071;-72
2022/07/09 11:23:20;;;;;;;14.55;3.55;;;22.10;63.20;;;;;;4881551;29;20037;-72
2022/07/09 11:25:46;;;;;;;8.40;3.38;;;22.10;63.30;;;;;;4864922;29;20470;-72
2022/07/09 11:28:20;;;;;;;10.52;3.15;;;22.00;62.10;;;;;;4864894;29;20040;-73
2022/07/09 11:30:57;;;;;;;6.00;2.72;;;22.00;61.20;;;;;;4880527;29;20055;-72
2022/07/09 11:33:23;;;;;;;6.85;2.40;;;22.00;62.00;;;;;;4881741;29;20029;-73
2022/07/09 11:35:49;;;;;;;6.43;2.15;;;22.00;61.70;;;;;;4880430;29;20044;-73
2022/07/09 11:38:15;;;;;;;6.13;2.70;;;22.00;61.10;;;;;;4881204;29;20085;-73
2022/07/09 11:40:41;;;;;;;7.68;2.40;;;22.00;61.00;;;;;;4881107;29;20037;-73
2022/07/09 11:43:16;;;;;;;9.30;2.80;;;22.00;60.60;;;;;;4881467;29;20075;-73
2022/07/09 11:45:52;;;;;;;8.02;2.50;;;22.00;60.10;;;;;;4881328;29;20027;-73
2022/07/09 11:48:18;;;;;;;6.60;2.05;;;22.00;61.30;;;;;;4880153;29;20204;-72
2022/07/09 11:50:46;;;;;;;4.95;2.00;;;22.00;59.60;;;;;;4880854;29;20101;-73
2022/07/09 11:53:23;;;;;;;8.15;2.63;;;22.00;60.70;;;;;;4880016;29;20033;-72
2022/07/09 11:55:59;;;;;;;5.43;2.15;;;22.00;60.50;;;;;;4881217;29;20504;-72
2022/07/09 11:58:25;;;;;;;7.82;2.42;;;22.00;60.80;;;;;;4881027;29;20477;-73
2022/07/09 12:00:51;;;;;;;8.43;2.40;;;22.10;60.50;;;;;;4880778;29;20029;-73
2022/07/09 12:03:24;;;;;;;8.52;2.72;;;22.00;61.60;;;;;;4879562;29;20095;-72
2022/07/09 12:05:50;;;;;;;6.57;2.22;;;22.00;62.00;;;;;;4879651;29;20060;-73
2022/07/09 12:08:30;;;;;;;9.13;2.15;;;22.00;61.80;;;;;;4880692;29;20025;-72
2022/07/09 12:10:56;;;;;;;11.88;2.75;;;22.00;62.60;;;;;;4879159;29;20048;-72
2022/07/09 12:13:22;;;;;;;9.02;2.17;;;22.00;61.50;;;;;;4880901;29;20041;-73
2022/07/09 12:15:48;;;;;;;9.00;3.00;;;22.00;61.20;;;;;;4880575;29;20496;-73
2022/07/09 12:18:13;;;;;;;9.32;2.55;;;22.00;61.70;;;;;;4880069;29;20044;-73
2022/07/09 12:20:39;;;;;;;68.30;44.17;;;22.10;62.60;;;;;;4880199;29;20044;-73
2022/07/09 12:23:05;;;;;;;53.33;37.60;;;22.20;62.30;;;;;;4880492;29;20029;-72
2022/07/09 12:25:31;;;;;;;50.30;32.45;;;22.20;63.20;;;;;;4880346;29;20033;-72
2022/07/09 12:27:57;;;;;;;26.75;15.50;;;22.10;61.80;;;;;;4879275;29;20036;-72
2022/07/09 12:30:23;;;;;;;19.77;10.43;;;22.20;61.90;;;;;;4880344;29;20025;-72
2022/07/09 12:32:49;;;;;;;12.93;6.45;;;22.10;60.90;;;;;;4880449;29;20036;-72
2022/07/09 12:35:16;;;;;;;17.58;8.38;;;22.10;60.60;;;;;;4879246;29;20497;-72
2022/07/09 12:37:41;;;;;;;14.13;6.63;;;22.20;62.00;;;;;;4879084;29;20397;-72
2022/07/09 12:40:10;;;;;;;8.43;4.07;;;22.60;61.80;;;;;;4880017;29;20035;-72
2022/07/09 12:42:36;;;;;;;9.20;3.55;;;22.50;59.30;;;;;;4863602;29;20044;-71